Time;durP1;ratioP1;P1;durP2;ratioP2;P2;SDS_P1;SDS_P2;PMS_P1;PMS_P2;Temp;Humidity;BMP_temperature;BMP_pressure;BME280_temperature;BME280_humidity;BME280_pressure;Samples;Min_cycle;Max_cycle;Signal;HPM_P1;HPM_P2
2023/03/15 00:01:14;;;;;;;12.23;1.63;;;;;;;;;;5057044;28;20209;-75
2023/03/15 00:03:41;;;;;;;4.13;1.47;;;;;;;;;;5066257;28;20302;-75
2023/03/15 00:06:08;;;;;;;8.37;1.83;;;;;;;;;;5072322;28;20301;-75
2023/03/15 00:08:34;;;;;;;7.40;1.50;;;;;;;;;;5056573;28;20199;-76
2023/03/15 00:11:00;;;;;;;4.60;1.40;;;;;;;;;;5076713;28;20195;-75
2023/03/15 00:13:29;;;;;;;6.00;1.60;;;;;;;;;;5073945;28;20555;-75
2023/03/15 00:15:56;;;;;;;5.00;1.67;;;;;;;;;;5053526;28;20267;-75
2023/03/15 00:18:22;;;;;;;2.37;1.10;;;;;;;;;;5063016;28;20682;-75
2023/03/15 00:20:49;;;;;;;10.07;2.23;;;;;;;;;;5073113;28;20211;-75
2023/03/15 00:23:16;;;;;;;4.40;1.50;;;;;;;;;;5071844;28;20199;-75
2023/03/15 00:25:43;;;;;;;3.90;1.20;;;;;;;;;;5077509;28;20210;-75
2023/03/15 00:28:09;;;;;;;6.77;1.73;;;;;;;;;;5074410;28;20209;-75
2023/03/15 00:30:37;;;;;;;8.77;1.77;;;;;;;;;;5053861;28;20325;-75
2023/03/15 00:33:04;;;;;;;10.90;1.43;;;;;;;;;;5057845;28;20201;-75
2023/03/15 00:35:32;;;;;;;10.40;1.97;;;;;;;;;;5055182;28;20683;-75
2023/03/15 00:37:58;;;;;;;3.73;1.33;;;;;;;;;;5047121;28;20207;-75
2023/03/15 00:40:24;;;;;;;7.10;1.67;;;;;;;;;;5059106;28;20245;-75
2023/03/15 00:42:51;;;;;;;4.40;1.23;;;;;;;;;;5063088;28;20202;-75
2023/03/15 00:45:18;;;;;;;5.67;1.57;;;;;;;;;;5052181;28;20685;-75
2023/03/15 00:47:48;;;;;;;10.83;1.50;;;;;;;;;;5069989;28;20271;-75
2023/03/15 00:50:14;;;;;;;2.63;1.40;;;;;;;;;;5073334;28;20224;-75
2023/03/15 00:52:42;;;;;;;10.47;1.60;;;;;;;;;;5066211;28;20305;-75
2023/03/15 00:55:12;;;;;;;6.77;1.30;;;;;;;;;;5061214;28;20198;-75
2023/03/15 00:57:39;;;;;;;8.37;1.50;;;;;;;;;;5069395;28;20201;-75
2023/03/15 01:00:05;;;;;;;13.10;1.60;;;;;;;;;;5076499;28;20222;-75
2023/03/15 01:02:33;;;;;;;5.97;1.40;;;;;;;;;;5054367;28;20595;-75
2023/03/15 01:05:01;;;;;;;2.73;1.23;;;;;;;;;;5071670;28;20217;-75
2023/03/15 01:07:27;;;;;;;10.13;2.23;;;;;;;;;;5071520;28;20507;-75
2023/03/15 01:09:53;;;;;;;5.37;1.80;;;;;;;;;;5071588;28;20218;-75
2023/03/15 01:12:20;;;;;;;2.60;1.03;;;;;;;;;;5066563;28;20697;-75
2023/03/15 01:14:47;;;;;;;3.23;1.00;;;;;;;;;;5073670;28;20202;-75
2023/03/15 01:17:14;;;;;;;5.93;1.10;;;;;;;;;;5073612;28;20200;-75
2023/03/15 01:19:41;;;;;;;7.03;1.47;;;;;;;;;;5083576;28;20211;-75
2023/03/15 01:22:08;;;;;;;4.17;1.20;;;;;;;;;;5074324;28;20198;-75
2023/03/15 01:24:35;;;;;;;8.23;1.30;;;;;;;;;;5060603;28;20263;-75
2023/03/15 01:27:01;;;;;;;3.43;1.07;;;;;;;;;;5053163;28;20194;-75
2023/03/15 01:29:27;;;;;;;3.87;1.33;;;;;;;;;;5071009;28;20206;-75
2023/03/15 01:31:54;;;;;;;9.97;1.83;;;;;;;;;;5071401;28;20194;-75
2023/03/15 01:34:20;;;;;;;11.47;2.10;;;;;;;;;;5071539;28;20487;-75
2023/03/15 01:36:49;;;;;;;7.30;1.73;;;;;;;;;;5061659;28;20198;-75
2023/03/15 01:39:17;;;;;;;9.30;1.63;;;;;;;;;;5053214;28;20408;-75
2023/03/15 01:41:45;;;;;;;6.10;1.47;;;;;;;;;;5053253;28;20201;-75
2023/03/15 01:44:12;;;;;;;8.13;1.43;;;;;;;;;;5053028;28;20248;-75
2023/03/15 01:46:38;;;;;;;4.00;1.50;;;;;;;;;;5056782;28;20317;-75
2023/03/15 01:49:21;;;;;;;7.03;1.73;;;;;;;;;;5052820;28;20214;-75
2023/03/15 01:51:49;;;;;;;7.77;1.37;;;;;;;;;;5053091;28;20217;-75
2023/03/15 01:54:19;;;;;;;13.43;1.63;;;;;;;;;;5065992;28;20214;-75
2023/03/15 01:56:49;;;;;;;4.60;1.67;;;;;;;;;;5069913;28;20580;-75
2023/03/15 01:59:17;;;;;;;5.50;1.37;;;;;;;;;;5069429;28;20218;-75
2023/03/15 02:01:44;;;;;;;6.20;1.67;;;;;;;;;;5059287;28;20203;-75
2023/03/15 02:04:13;;;;;;;7.13;1.40;;;;;;;;;;5052905;28;20229;-75
2023/03/15 02:06:45;;;;;;;6.83;1.40;;;;;;;;;;5069620;28;20670;-75
2023/03/15 02:09:13;;;;;;;9.70;1.57;;;;;;;;;;5064441;28;20218;-76
2023/03/15 02:11:42;;;;;;;6.77;1.93;;;;;;;;;;5061832;28;20293;-75
2023/03/15 02:14:15;;;;;;;4.57;1.37;;;;;;;;;;5068540;28;20198;-75
2023/03/15 02:16:44;;;;;;;4.60;1.60;;;;;;;;;;5066011;28;20210;-75
2023/03/15 02:19:21;;;;;;;9.23;1.83;;;;;;;;;;5064288;28;20229;-75
2023/03/15 02:21:52;;;;;;;4.00;1.40;;;;;;;;;;5069838;28;20663;-75
2023/03/15 02:24:25;;;;;;;6.23;1.77;;;;;;;;;;5069850;28;20207;-75
2023/03/15 02:26:54;;;;;;;1.00;0.87;;;;;;;;;;5059130;28;20206;-75
2023/03/15 02:29:23;;;;;;;8.43;1.80;;;;;;;;;;5071247;28;20302;-75
2023/03/15 02:31:50;;;;;;;6.13;1.07;;;;;;;;;;5064937;28;20289;-75
2023/03/15 02:34:16;;;;;;;5.07;1.27;;;;;;;;;;5053798;28;20202;-75
2023/03/15 02:36:43;;;;;;;6.87;1.73;;;;;;;;;;5057828;28;20210;-75
2023/03/15 02:39:16;;;;;;;7.93;1.37;;;;;;;;;;5070932;28;20218;-75
2023/03/15 02:41:46;;;;;;;4.40;1.20;;;;;;;;;;5069875;28;20195;-75
2023/03/15 02:44:14;;;;;;;5.83;1.47;;;;;;;;;;5058120;28;20234;-75
2023/03/15 02:46:42;;;;;;;4.30;1.70;;;;;;;;;;5045753;28;20276;-75
2023/03/15 02:49:09;;;;;;;12.77;1.97;;;;;;;;;;5041489;28;20221;-75
2023/03/15 02:51:36;;;;;;;4.70;1.20;;;;;;;;;;5053192;28;20211;-75
2023/03/15 02:54:02;;;;;;;8.60;2.23;;;;;;;;;;5053757;28;20334;-75
2023/03/15 02:56:28;;;;;;;3.07;1.10;;;;;;;;;;5091705;28;20193;-75
2023/03/15 02:58:54;;;;;;;6.87;1.30;;;;;;;;;;5073183;28;20221;-75
2023/03/15 03:01:21;;;;;;;16.40;1.67;;;;;;;;;;5054109;28;20202;-76
2023/03/15 03:03:48;;;;;;;7.07;1.57;;;;;;;;;;5060678;28;20202;-76
2023/03/15 03:06:15;;;;;;;4.53;1.50;;;;;;;;;;5057051;28;20586;-75
2023/03/15 03:08:45;;;;;;;7.60;1.73;;;;;;;;;;5056600;28;20195;-75
2023/03/15 03:11:13;;;;;;;3.77;1.17;;;;;;;;;;5056846;28;20616;-75
2023/03/15 03:13:39;;;;;;;3.10;1.50;;;;;;;;;;5090816;28;20239;-75
2023/03/15 03:16:05;;;;;;;3.90;1.30;;;;;;;;;;5063509;28;20202;-75
2023/03/15 03:18:34;;;;;;;8.47;1.60;;;;;;;;;;5061299;28;20209;-75
2023/03/15 03:21:03;;;;;;;2.90;1.50;;;;;;;;;;5049428;28;20575;-76
2023/03/15 03:23:30;;;;;;;3.90;1.53;;;;;;;;;;5058987;28;20205;-75
2023/03/15 03:25:58;;;;;;;3.23;1.37;;;;;;;;;;5056065;28;20222;-75
2023/03/15 03:28:25;;;;;;;5.20;1.50;;;;;;;;;;5064155;28;20735;-75
2023/03/15 03:30:51;;;;;;;4.00;1.10;;;;;;;;;;5062006;28;20229;-75
2023/03/15 03:33:18;;;;;;;3.07;1.10;;;;;;;;;;5056234;28;20208;-76
2023/03/15 03:35:46;;;;;;;3.67;1.17;;;;;;;;;;5071151;28;20240;-75
2023/03/15 03:38:14;;;;;;;2.77;0.90;;;;;;;;;;5072532;28;20218;-75
2023/03/15 03:40:45;;;;;;;5.13;1.93;;;;;;;;;;5059811;28;20272;-75
2023/03/15 03:43:11;;;;;;;6.37;1.43;;;;;;;;;;5073974;28;20663;-75
2023/03/15 03:45:37;;;;;;;5.47;1.57;;;;;;;;;;5064633;28;20222;-75
2023/03/15 03:48:05;;;;;;;7.90;1.57;;;;;;;;;;5060218;28;20286;-75
2023/03/15 03:50:33;;;;;;;6.50;1.47;;;;;;;;;;5059423;28;20279;-75
2023/03/15 03:53:00;;;;;;;6.53;1.87;;;;;;;;;;5069205;28;20199;-75
2023/03/15 03:55:32;;;;;;;9.40;1.20;;;;;;;;;;5059041;28;20222;-75
2023/03/15 03:57:59;;;;;;;3.33;1.80;;;;;;;;;;5059199;28;20252;-75
2023/03/15 04:00:55;;;;;;;10.57;1.50;;;;;;;;;;5066127;28;20586;-75
2023/03/15 04:03:26;;;;;;;7.43;1.40;;;;;;;;;;5057473;28;20198;-75
2023/03/15 04:05:53;;;;;;;4.40;1.17;;;;;;;;;;5055485;28;20266;-75
2023/03/15 04:08:22;;;;;;;7.73;1.70;;;;;;;;;;5071328;28;20207;-75
2023/03/15 04:10:53;;;;;;;10.33;1.90;;;;;;;;;;5052976;28;20226;-75
2023/03/15 04:13:21;;;;;;;8.93;1.30;;;;;;;;;;5050381;28;20293;-75
2023/03/15 04:15:47;;;;;;;8.00;1.20;;;;;;;;;;5044843;28;20619;-75
2023/03/15 04:18:15;;;;;;;9.10;1.20;;;;;;;;;;5055533;28;20249;-75
2023/03/15 04:20:45;;;;;;;7.17;1.27;;;;;;;;;;5057532;28;20227;-74
2023/03/15 04:23:12;;;;;;;8.30;1.87;;;;;;;;;;5089750;28;20582;-75
2023/03/15 04:25:58;;;;;;;3.47;1.20;;;;;;;;;;5091814;28;20690;-75
2023/03/15 04:28:42;;;;;;;3.43;1.67;;;;;;;;;;5073383;28;20564;-75
2023/03/15 04:31:27;;;;;;;4.67;1.60;;;;;;;;;;5085429;28;20276;-75
2023/03/15 04:34:04;;;;;;;14.80;1.83;;;;;;;;;;5093606;28;20170;-75
2023/03/15 04:36:33;;;;;;;4.17;1.20;;;;;;;;;;5093323;28;20264;-75
2023/03/15 04:39:11;;;;;;;5.97;1.70;;;;;;;;;;5052848;28;20230;-75
2023/03/15 04:41:53;;;;;;;3.83;1.63;;;;;;;;;;5057217;28;20214;-75
2023/03/15 04:44:26;;;;;;;10.90;1.77;;;;;;;;;;5073209;28;20188;-75
2023/03/15 04:47:09;;;;;;;6.70;1.47;;;;;;;;;;5057138;28;20221;-75
2023/03/15 04:49:54;;;;;;;7.70;1.67;;;;;;;;;;5073064;28;20549;-75
2023/03/15 04:52:29;;;;;;;7.60;2.20;;;;;;;;;;5079535;28;20208;-75
2023/03/15 04:55:09;;;;;;;4.90;1.53;;;;;;;;;;5054404;28;20279;-75
2023/03/15 04:58:15;;;;;;;4.47;1.40;;;;;;;;;;5045855;28;20456;-75
2023/03/15 05:00:54;;;;;;;3.73;1.23;;;;;;;;;;5074705;28;20564;-75
2023/03/15 05:03:36;;;;;;;2.53;1.27;;;;;;;;;;5080540;28;20186;-75
2023/03/15 05:06:28;;;;;;;4.60;1.73;;;;;;;;;;5069879;28;20210;-75
2023/03/15 05:09:17;;;;;;;1.97;1.40;;;;;;;;;;5072392;28;20705;-75
2023/03/15 05:12:02;;;;;;;11.23;1.73;;;;;;;;;;5072900;28;20182;-75
2023/03/15 05:14:50;;;;;;;11.67;1.90;;;;;;;;;;5073997;28;20214;-75
2023/03/15 05:17:36;;;;;;;7.60;2.10;;;;;;;;;;5077417;28;20685;-75
2023/03/15 05:20:24;;;;;;;6.43;1.67;;;;;;;;;;5073005;28;20471;-75
2023/03/15 05:23:16;;;;;;;8.77;1.97;;;;;;;;;;5069890;28;20234;-75
2023/03/15 05:25:53;;;;;;;8.27;1.27;;;;;;;;;;5059792;28;20210;-75
2023/03/15 05:28:48;;;;;;;5.53;1.90;;;;;;;;;;5053605;28;20207;-75
2023/03/15 05:31:22;;;;;;;2.73;1.40;;;;;;;;;;5071833;28;20790;-75
2023/03/15 05:34:07;;;;;;;5.47;1.73;;;;;;;;;;5052649;28;20428;-75
2023/03/15 05:36:52;;;;;;;2.77;1.20;;;;;;;;;;5053480;28;20409;-75
2023/03/15 05:39:41;;;;;;;8.20;1.37;;;;;;;;;;5050352;28;20706;-75
2023/03/15 05:42:13;;;;;;;5.60;1.80;;;;;;;;;;5071955;28;20428;-75
2023/03/15 05:44:57;;;;;;;5.80;1.63;;;;;;;;;;5070733;28;20195;-75
2023/03/15 05:47:58;;;;;;;5.93;1.70;;;;;;;;;;5058966;28;20199;-75
2023/03/15 05:50:39;;;;;;;6.80;1.30;;;;;;;;;;5053679;28;20221;-75
2023/03/15 05:53:05;;;;;;;7.93;1.60;;;;;;;;;;5071958;28;20234;-75
2023/03/15 05:55:38;;;;;;;11.03;1.80;;;;;;;;;;5053518;28;20190;-75
2023/03/15 05:58:34;;;;;;;6.23;1.63;;;;;;;;;;4982575;28;20208;-75
2023/03/15 06:01:12;;;;;;;6.17;1.70;;;;;;;;;;5053464;28;20260;-74
2023/03/15 06:03:59;;;;;;;8.37;1.60;;;;;;;;;;5071628;28;20201;-75
2023/03/15 06:06:29;;;;;;;16.37;1.70;;;;;;;;;;5067543;28;20203;-74
2023/03/15 06:08:55;;;;;;;3.53;1.57;;;;;;;;;;5053067;28;20229;-75
2023/03/15 06:11:22;;;;;;;6.93;2.00;;;;;;;;;;5053295;28;20643;-75
2023/03/15 06:13:49;;;;;;;7.00;1.53;;;;;;;;;;5053247;28;20650;-75
2023/03/15 06:16:30;;;;;;;3.00;1.87;;;;;;;;;;5064273;28;20210;-75
2023/03/15 06:19:04;;;;;;;6.83;1.93;;;;;;;;;;5058986;28;20253;-75
2023/03/15 06:21:31;;;;;;;2.97;1.53;;;;;;;;;;5052511;28;20210;-76
2023/03/15 06:23:59;;;;;;;5.63;1.57;;;;;;;;;;5053221;28;20198;-75
2023/03/15 06:26:25;;;;;;;4.53;1.47;;;;;;;;;;5052912;28;20217;-74
2023/03/15 06:28:57;;;;;;;7.50;2.23;;;;;;;;;;5066290;28;20299;-75
2023/03/15 06:31:23;;;;;;;5.47;1.67;;;;;;;;;;5069852;28;20203;-75
2023/03/15 06:33:56;;;;;;;5.70;1.77;;;;;;;;;;5058151;28;20203;-75
2023/03/15 06:36:24;;;;;;;8.53;2.00;;;;;;;;;;5054163;28;20191;-75
2023/03/15 06:38:52;;;;;;;3.93;1.30;;;;;;;;;;5073187;28;20194;-75
2023/03/15 06:41:20;;;;;;;5.87;1.63;;;;;;;;;;5073788;28;20681;-75
2023/03/15 06:43:47;;;;;;;10.77;2.10;;;;;;;;;;5073057;28;20209;-75
2023/03/15 06:46:14;;;;;;;5.97;1.77;;;;;;;;;;5062647;28;20229;-75
2023/03/15 06:48:40;;;;;;;9.07;1.80;;;;;;;;;;5052814;28;20207;-74
2023/03/15 06:51:09;;;;;;;8.80;1.57;;;;;;;;;;5054206;28;20201;-75
2023/03/15 06:53:37;;;;;;;4.23;1.50;;;;;;;;;;5061786;28;20554;-75
2023/03/15 06:56:03;;;;;;;11.93;2.17;;;;;;;;;;5058251;28;20248;-75
2023/03/15 06:58:30;;;;;;;12.80;2.07;;;;;;;;;;5073992;28;20205;-75
2023/03/15 07:00:56;;;;;;;5.40;1.60;;;;;;;;;;5060202;28;20224;-75
2023/03/15 07:03:22;;;;;;;10.50;1.90;;;;;;;;;;5055746;28;20213;-75
2023/03/15 07:05:51;;;;;;;9.67;2.17;;;;;;;;;;5073165;28;20199;-75
2023/03/15 07:08:17;;;;;;;15.00;3.13;;;;;;;;;;5055217;28;20263;-75
2023/03/15 07:10:45;;;;;;;5.77;1.97;;;;;;;;;;5073134;28;20217;-73
2023/03/15 07:13:12;;;;;;;6.07;1.60;;;;;;;;;;5073420;28;20206;-75
2023/03/15 07:15:38;;;;;;;11.13;2.37;;;;;;;;;;5077705;28;20202;-74
2023/03/15 07:18:04;;;;;;;16.60;2.30;;;;;;;;;;5081126;28;20193;-74
2023/03/15 07:20:31;;;;;;;8.27;2.03;;;;;;;;;;5060858;28;20218;-75
2023/03/15 07:22:57;;;;;;;9.00;1.93;;;;;;;;;;5051758;28;20210;-75
2023/03/15 07:25:26;;;;;;;4.53;1.67;;;;;;;;;;5070789;28;20278;-75
2023/03/15 07:27:53;;;;;;;9.50;1.97;;;;;;;;;;5072072;28;20215;-75
2023/03/15 07:30:20;;;;;;;14.70;2.30;;;;;;;;;;5054405;28;20218;-74
2023/03/15 07:32:46;;;;;;;9.93;1.90;;;;;;;;;;5071886;28;20209;-74
2023/03/15 07:35:13;;;;;;;17.80;1.93;;;;;;;;;;5071737;28;20210;-73
2023/03/15 07:37:39;;;;;;;10.43;2.37;;;;;;;;;;5072739;28;20194;-73
2023/03/15 07:40:08;;;;;;;8.20;2.30;;;;;;;;;;5072810;28;20226;-73
2023/03/15 07:42:35;;;;;;;7.73;1.90;;;;;;;;;;5073739;28;20198;-73
2023/03/15 07:45:06;;;;;;;11.13;2.40;;;;;;;;;;5072239;28;20203;-73
2023/03/15 07:47:34;;;;;;;11.50;2.87;;;;;;;;;;5071172;28;20293;-74
2023/03/15 07:50:00;;;;;;;9.63;2.63;;;;;;;;;;5068593;28;20288;-74
2023/03/15 07:52:27;;;;;;;9.73;2.13;;;;;;;;;;5068998;28;20252;-74
2023/03/15 07:54:54;;;;;;;7.07;2.03;;;;;;;;;;5072017;28;20225;-74
2023/03/15 07:57:20;;;;;;;11.77;2.27;;;;;;;;;;5065213;28;20194;-74
2023/03/15 07:59:46;;;;;;;6.00;2.60;;;;;;;;;;5075228;28;20226;-72
2023/03/15 08:02:14;;;;;;;19.73;3.23;;;;;;;;;;5071244;28;20218;-73
2023/03/15 08:04:40;;;;;;;10.50;2.23;;;;;;;;;;5054151;28;20198;-73
2023/03/15 08:07:07;;;;;;;11.63;2.47;;;;;;;;;;5075946;28;20244;-73
2023/03/15 08:09:33;;;;;;;7.60;2.50;;;;;;;;;;5068226;28;20218;-73
2023/03/15 08:11:59;;;;;;;16.63;3.40;;;;;;;;;;5073884;28;20230;-74
2023/03/15 08:14:26;;;;;;;12.73;2.50;;;;;;;;;;5076170;28;20285;-74
2023/03/15 08:16:52;;;;;;;12.40;3.07;;;;;;;;;;5071462;28;20198;-74
2023/03/15 08:19:20;;;;;;;15.73;2.93;;;;;;;;;;5070699;28;20302;-74
2023/03/15 08:21:47;;;;;;;12.07;2.97;;;;;;;;;;5067921;28;20198;-74
2023/03/15 08:24:14;;;;;;;6.93;2.97;;;;;;;;;;5063787;28;20206;-73
2023/03/15 08:26:42;;;;;;;11.57;2.80;;;;;;;;;;5057461;28;20245;-73
2023/03/15 08:29:08;;;;;;;10.90;2.77;;;;;;;;;;5057313;28;20318;-73
2023/03/15 08:31:34;;;;;;;6.37;3.17;;;;;;;;;;5049757;28;20683;-73
2023/03/15 08:34:01;;;;;;;15.80;3.87;;;;;;;;;;5057813;28;20191;-73
2023/03/15 08:36:28;;;;;;;19.03;4.53;;;;;;;;;;5070267;28;20202;-73
2023/03/15 08:38:54;;;;;;;7.63;3.10;;;;;;;;;;5048947;28;20575;-73
2023/03/15 08:41:21;;;;;;;8.37;3.33;;;;;;;;;;5067519;28;20209;-73
2023/03/15 08:43:47;;;;;;;10.70;2.97;;;;;;;;;;5070228;28;20198;-73
2023/03/15 08:46:13;;;;;;;14.90;3.73;;;;;;;;;;5068709;28;20202;-73
2023/03/15 08:48:39;;;;;;;8.50;2.90;;;;;;;;;;5044218;28;20230;-73
2023/03/15 08:51:07;;;;;;;16.60;3.30;;;;;;;;;;5063161;28;20294;-74
2023/03/15 08:53:36;;;;;;;13.93;3.40;;;;;;;;;;5069485;28;20194;-73
2023/03/15 08:56:03;;;;;;;6.33;2.50;;;;;;;;;;5070585;28;20191;-73
2023/03/15 08:58:29;;;;;;;16.50;3.87;;;;;;;;;;5084024;28;20651;-73
2023/03/15 09:00:56;;;;;;;9.67;3.40;;;;;;;;;;5070030;28;20614;-73
2023/03/15 09:03:22;;;;;;;12.80;3.13;;;;;;;;;;5071530;28;20598;-73
2023/03/15 09:05:49;;;;;;;13.37;3.50;;;;;;;;;;5069469;28;20202;-73
2023/03/15 09:08:19;;;;;;;12.33;4.57;;;;;;;;;;5061891;28;20623;-73
2023/03/15 09:10:47;;;;;;;12.00;3.80;;;;;;;;;;5068962;28;20538;-73
2023/03/15 09:13:13;;;;;;;12.87;4.00;;;;;;;;;;5067770;28;20195;-73
2023/03/15 09:15:39;;;;;;;7.73;3.30;;;;;;;;;;5069332;28;20213;-73
2023/03/15 09:18:06;;;;;;;9.60;3.17;;;;;;;;;;5043742;28;20199;-73
2023/03/15 09:20:32;;;;;;;16.37;3.50;;;;;;;;;;5069933;28;20294;-73
2023/03/15 09:22:58;;;;;;;10.10;3.10;;;;;;;;;;5068898;28;20663;-73
2023/03/15 09:25:25;;;;;;;7.20;2.73;;;;;;;;;;5068574;28;20278;-73
2023/03/15 09:27:53;;;;;;;10.40;3.40;;;;;;;;;;5049895;28;20218;-73
2023/03/15 09:30:20;;;;;;;11.57;3.80;;;;;;;;;;5068524;28;20631;-73
2023/03/15 09:32:50;;;;;;;15.40;3.83;;;;;;;;;;5041795;28;20559;-73
2023/03/15 09:35:17;;;;;;;13.87;4.20;;;;;;;;;;5052369;28;20211;-73
2023/03/15 09:37:43;;;;;;;13.73;4.33;;;;;;;;;;5060983;28;20199;-73
2023/03/15 09:40:15;;;;;;;15.93;5.57;;;;;;;;;;5054635;28;20294;-73
2023/03/15 09:42:47;;;;;;;16.00;4.80;;;;;;;;;;5068976;28;20576;-73
2023/03/15 09:45:20;;;;;;;16.20;5.63;;;;;;;;;;5067623;28;20203;-73
2023/03/15 09:47:50;;;;;;;11.47;5.07;;;;;;;;;;5061386;28;20214;-73
2023/03/15 09:50:20;;;;;;;18.50;7.17;;;;;;;;;;5050046;28;20253;-73
2023/03/15 09:52:48;;;;;;;16.13;6.40;;;;;;;;;;5066205;28;20280;-73
2023/03/15 09:55:16;;;;;;;8.87;5.23;;;;;;;;;;5068799;28;20661;-72
2023/03/15 09:57:46;;;;;;;11.63;5.00;;;;;;;;;;5068687;28;20194;-73
2023/03/15 10:00:14;;;;;;;10.93;5.77;;;;;;;;;;5067303;28;20288;-72
2023/03/15 10:02:48;;;;;;;16.13;5.57;;;;;;;;;;5053532;28;20204;-73
2023/03/15 10:05:18;;;;;;;8.73;3.93;;;;;;;;;;5067051;28;20211;-73
2023/03/15 10:07:45;;;;;;;10.97;4.20;;;;;;;;;;5068310;28;20293;-72
2023/03/15 10:10:14;;;;;;;11.53;4.07;;;;;;;;;;5050441;28;20332;-73
2023/03/15 10:12:43;;;;;;;8.27;3.67;;;;;;;;;;5071679;28;20202;-73
2023/03/15 10:15:17;;;;;;;11.07;3.60;;;;;;;;;;5068305;28;20448;-73
2023/03/15 10:17:47;;;;;;;7.27;2.87;;;;;;;;;;5068529;28;20663;-73
2023/03/15 10:20:17;;;;;;;15.67;9.13;;;;;;;;;;5072179;28;20231;-73
2023/03/15 10:22:47;;;;;;;15.63;8.67;;;;;;;;;;5066492;28;20715;-73
2023/03/15 10:25:15;;;;;;;6.27;4.67;;;;;;;;;;5070830;28;20199;-73
2023/03/15 10:27:42;;;;;;;4.37;2.70;;;;;;;;;;5063737;28;20203;-73
2023/03/15 10:30:14;;;;;;;3.83;2.43;;;;;;;;;;5071020;28;20270;-73
2023/03/15 10:32:43;;;;;;;3.13;1.60;;;;;;;;;;5069700;28;20614;-75
2023/03/15 10:35:13;;;;;;;3.03;1.60;;;;;;;;;;5061032;28;20190;-74
2023/03/15 10:37:41;;;;;;;2.13;1.60;;;;;;;;;;5048407;28;20205;-75
2023/03/15 10:40:14;;;;;;;3.33;1.87;;;;;;;;;;5066409;28;20273;-72
2023/03/15 10:42:40;;;;;;;3.90;1.70;;;;;;;;;;5071638;28;20221;-73
2023/03/15 10:45:18;;;;;;;2.43;2.00;;;;;;;;;;5072009;28;20204;-73
2023/03/15 10:47:46;;;;;;;5.17;2.10;;;;;;;;;;5064048;28;20709;-73
2023/03/15 10:50:17;;;;;;;4.03;2.33;;;;;;;;;;5071607;28;20226;-73
2023/03/15 10:52:45;;;;;;;3.70;1.70;;;;;;;;;;5060800;28;20575;-73
2023/03/15 10:55:13;;;;;;;4.50;1.70;;;;;;;;;;5071773;28;20666;-73
2023/03/15 10:57:41;;;;;;;3.30;2.10;;;;;;;;;;5072003;28;20288;-72
2023/03/15 11:00:22;;;;;;;4.00;1.80;;;;;;;;;;5068988;28;20218;-72
2023/03/15 11:02:49;;;;;;;4.90;1.90;;;;;;;;;;5071622;28;20559;-75
2023/03/15 11:05:16;;;;;;;5.37;2.00;;;;;;;;;;5068701;28;20205;-75
2023/03/15 11:07:54;;;;;;;6.80;2.30;;;;;;;;;;5060025;28;20226;-75
2023/03/15 11:10:21;;;;;;;4.30;1.70;;;;;;;;;;5068057;28;20214;-73
2023/03/15 11:13:10;;;;;;;2.10;1.60;;;;;;;;;;5051146;28;20248;-73
2023/03/15 11:15:36;;;;;;;2.40;2.10;;;;;;;;;;5064728;28;20207;-73
2023/03/15 11:18:03;;;;;;;4.70;1.67;;;;;;;;;;5070957;28;20198;-72
2023/03/15 11:20:30;;;;;;;3.37;1.90;;;;;;;;;;5078592;28;20501;-73
2023/03/15 11:22:58;;;;;;;2.90;2.10;;;;;;;;;;5069756;28;20293;-73
2023/03/15 11:25:25;;;;;;;3.20;1.70;;;;;;;;;;5071059;28;20193;-73
2023/03/15 11:27:52;;;;;;;2.23;1.70;;;;;;;;;;5058342;28;20226;-73
2023/03/15 11:30:21;;;;;;;1.90;1.50;;;;;;;;;;5053675;28;20218;-73
2023/03/15 11:32:47;;;;;;;3.23;1.83;;;;;;;;;;5053235;28;20211;-73
2023/03/15 11:35:15;;;;;;;2.50;1.80;;;;;;;;;;5071252;28;20195;-73
2023/03/15 11:37:45;;;;;;;4.93;2.17;;;;;;;;;;5071001;28;20437;-73
2023/03/15 11:40:19;;;;;;;3.03;1.90;;;;;;;;;;5070418;28;20776;-72
2023/03/15 11:42:49;;;;;;;2.87;2.03;;;;;;;;;;5053345;28;20232;-72
2023/03/15 11:45:16;;;;;;;2.93;2.00;;;;;;;;;;5053074;28;20190;-73
2023/03/15 11:47:46;;;;;;;5.20;1.87;;;;;;;;;;5052947;28;20221;-73
2023/03/15 11:50:14;;;;;;;3.77;1.80;;;;;;;;;;5069564;28;20225;-73
2023/03/15 11:52:41;;;;;;;3.40;1.70;;;;;;;;;;5054253;28;20210;-73
2023/03/15 11:55:16;;;;;;;1.80;1.50;;;;;;;;;;5069034;28;20219;-72
2023/03/15 11:57:43;;;;;;;2.23;1.80;;;;;;;;;;5062937;28;20280;-72
2023/03/15 12:00:47;;;;;;;3.87;1.80;;;;;;;;;;5067148;28;20222;-73
2023/03/15 12:03:33;;;;;;;2.60;1.63;;;;;;;;;;5068859;28;20529;-73
2023/03/15 12:06:01;;;;;;;1.70;1.60;;;;;;;;;;5064266;28;20195;-73
2023/03/15 12:08:40;;;;;;;3.67;1.70;;;;;;;;;;5068281;28;20233;-72
2023/03/15 12:11:11;;;;;;;2.47;1.67;;;;;;;;;;5068776;28;21013;-73
2023/03/15 12:13:37;;;;;;;2.70;1.83;;;;;;;;;;5052357;28;20681;-73
2023/03/15 12:16:05;;;;;;;4.50;1.70;;;;;;;;;;5069262;28;20553;-73
2023/03/15 12:18:33;;;;;;;5.37;1.43;;;;;;;;;;5069389;28;20198;-73
2023/03/15 12:21:07;;;;;;;4.87;1.67;;;;;;;;;;5068239;28;20245;-72
2023/03/15 12:23:42;;;;;;;1.77;1.13;;;;;;;;;;5067938;28;20194;-72
2023/03/15 12:26:16;;;;;;;5.30;1.40;;;;;;;;;;5069950;28;20201;-73
2023/03/15 12:28:49;;;;;;;3.53;1.70;;;;;;;;;;5050593;28;20215;-73
2023/03/15 12:31:15;;;;;;;1.63;1.30;;;;;;;;;;5049624;28;20321;-72
2023/03/15 12:33:46;;;;;;;4.63;2.10;;;;;;;;;;5065340;28;20207;-73
2023/03/15 12:36:17;;;;;;;2.23;1.80;;;;;;;;;;5053188;28;20203;-73
2023/03/15 12:38:53;;;;;;;2.03;1.37;;;;;;;;;;5067862;28;20205;-72
2023/03/15 12:41:34;;;;;;;1.90;1.40;;;;;;;;;;5051473;28;20559;-73
2023/03/15 12:44:15;;;;;;;3.80;1.60;;;;;;;;;;5068394;28;20198;-73
2023/03/15 12:46:57;;;;;;;3.00;1.93;;;;;;;;;;5067191;28;20202;-73
2023/03/15 12:49:31;;;;;;;2.57;1.67;;;;;;;;;;5064566;28;20222;-73
2023/03/15 12:51:58;;;;;;;2.10;1.53;;;;;;;;;;5050725;28;20290;-73
2023/03/15 12:54:25;;;;;;;5.47;1.97;;;;;;;;;;5068270;28;20659;-73
2023/03/15 12:56:55;;;;;;;2.97;2.67;;;;;;;;;;5066317;28;20209;-73
2023/03/15 12:59:27;;;;;;;3.93;2.40;;;;;;;;;;5059612;28;20218;-73
2023/03/15 13:01:53;;;;;;;5.17;2.90;;;;;;;;;;5069122;28;20214;-73
2023/03/15 13:04:20;;;;;;;2.73;1.80;;;;;;;;;;5067356;28;20194;-71
2023/03/15 13:06:55;;;;;;;1.87;1.30;;;;;;;;;;5050872;28;20598;-73
2023/03/15 13:09:27;;;;;;;1.63;1.27;;;;;;;;;;5066248;28;20249;-72
2023/03/15 13:11:58;;;;;;;2.80;1.37;;;;;;;;;;5067840;28;20205;-73
2023/03/15 13:14:30;;;;;;;2.70;1.27;;;;;;;;;;5066719;28;20201;-72
2023/03/15 13:17:01;;;;;;;2.20;1.10;;;;;;;;;;5066803;28;20260;-72
2023/03/15 13:19:31;;;;;;;3.20;1.20;;;;;;;;;;5051447;28;20223;-73
2023/03/15 13:22:05;;;;;;;2.63;1.17;;;;;;;;;;5070902;28;20203;-73
2023/03/15 13:24:35;;;;;;;3.33;1.07;;;;;;;;;;5049228;28;20244;-72
2023/03/15 13:27:07;;;;;;;2.03;1.10;;;;;;;;;;5047644;28;20194;-72
2023/03/15 13:29:34;;;;;;;1.70;1.40;;;;;;;;;;5068471;28;20228;-73
2023/03/15 13:32:01;;;;;;;5.17;1.60;;;;;;;;;;5051801;28;20199;-73
2023/03/15 13:34:29;;;;;;;2.90;1.70;;;;;;;;;;5066843;28;20229;-73
2023/03/15 13:36:57;;;;;;;3.07;1.53;;;;;;;;;;5068355;28;20286;-73
2023/03/15 13:39:24;;;;;;;3.80;1.70;;;;;;;;;;5068528;28;20257;-73
2023/03/15 13:41:57;;;;;;;3.83;1.73;;;;;;;;;;5048616;28;20207;-73
2023/03/15 13:44:25;;;;;;;3.67;2.43;;;;;;;;;;5051394;28;20195;-73
2023/03/15 13:46:51;;;;;;;2.20;1.70;;;;;;;;;;5068357;28;20195;-73
2023/03/15 13:49:18;;;;;;;2.57;2.00;;;;;;;;;;5068778;28;20579;-73
2023/03/15 13:51:45;;;;;;;2.67;1.70;;;;;;;;;;5064987;28;20814;-72
2023/03/15 13:54:15;;;;;;;5.03;1.47;;;;;;;;;;5061740;28;20214;-72
2023/03/15 13:56:45;;;;;;;1.57;1.40;;;;;;;;;;5068243;28;20200;-73
2023/03/15 13:59:12;;;;;;;10.13;3.37;;;;;;;;;;5060106;28;20210;-73
2023/03/15 14:01:41;;;;;;;3.80;2.20;;;;;;;;;;5066938;28;20191;-73
2023/03/15 14:04:09;;;;;;;4.90;2.20;;;;;;;;;;5060238;28;20199;-73
2023/03/15 14:06:35;;;;;;;4.97;2.03;;;;;;;;;;5065514;28;20342;-73
2023/03/15 14:09:07;;;;;;;3.83;2.40;;;;;;;;;;5063436;28;20222;-73
2023/03/15 14:11:36;;;;;;;3.90;1.57;;;;;;;;;;5068194;28;20198;-73
2023/03/15 14:14:13;;;;;;;2.17;1.70;;;;;;;;;;5062343;28;20201;-75
2023/03/15 14:16:41;;;;;;;3.23;2.03;;;;;;;;;;5063093;28;20374;-75
2023/03/15 14:19:16;;;;;;;4.23;2.03;;;;;;;;;;5069896;28;20780;-75
2023/03/15 14:21:44;;;;;;;2.83;1.87;;;;;;;;;;5063553;28;20300;-75
2023/03/15 14:24:13;;;;;;;3.00;2.57;;;;;;;;;;5066816;28;20198;-74
2023/03/15 14:26:39;;;;;;;5.10;2.53;;;;;;;;;;5075060;28;20205;-73
2023/03/15 14:29:07;;;;;;;7.47;2.53;;;;;;;;;;5067476;28;20225;-73
2023/03/15 14:31:36;;;;;;;3.13;2.57;;;;;;;;;;5064469;28;20253;-72
2023/03/15 14:34:08;;;;;;;3.03;1.97;;;;;;;;;;5070896;28;20202;-73
2023/03/15 14:36:40;;;;;;;4.23;2.43;;;;;;;;;;5061202;28;20210;-72
2023/03/15 14:39:16;;;;;;;4.57;2.30;;;;;;;;;;5065197;28;20219;-73
2023/03/15 14:41:42;;;;;;;3.87;2.20;;;;;;;;;;5047922;28;20217;-73
2023/03/15 14:44:09;;;;;;;2.33;1.83;;;;;;;;;;5051201;28;20199;-73
2023/03/15 14:46:35;;;;;;;5.10;2.00;;;;;;;;;;5067928;28;20870;-73
2023/03/15 14:49:02;;;;;;;2.27;1.90;;;;;;;;;;5071284;28;20303;-74
2023/03/15 14:51:31;;;;;;;4.80;2.30;;;;;;;;;;5066504;28;20195;-74
2023/03/15 14:53:58;;;;;;;4.30;2.33;;;;;;;;;;5047384;28;20662;-75
2023/03/15 14:56:25;;;;;;;3.13;1.90;;;;;;;;;;5064550;28;20225;-75
2023/03/15 14:58:52;;;;;;;2.17;1.90;;;;;;;;;;5067050;28;20199;-75